createdAt,value
2022-09-10T00:00:01.830Z,65.0
2022-09-10T00:05:01.502Z,62.6
2022-09-10T00:10:01.487Z,63.2
2022-09-10T00:15:02.110Z,64.5
2022-09-10T00:20:01.333Z,65.7
2022-09-10T00:25:08.421Z,67.8
2022-09-10T00:30:01.644Z,68.4
2022-09-10T00:40:06.656Z,67.3
2022-09-10T00:45:01.496Z,66.9
2022-09-10T00:50:01.291Z,65.2
2022-09-10T00:55:01.498Z,64.4
2022-09-10T01:00:01.683Z,64.3
2022-09-10T01:05:06.214Z,64.2
2022-09-10T01:10:01.399Z,62.6
2022-09-10T01:15:01.736Z,62.7
2022-09-10T01:20:01.704Z,64.2
2022-09-10T01:40:01.502Z,64.0
2022-09-10T01:45:01.726Z,66.8
2022-09-10T01:50:01.583Z,68.4
2022-09-10T01:55:01.802Z,68.3
2022-09-10T02:00:01.313Z,69.6
2022-09-10T02:05:06.906Z,70.4
2022-09-10T02:10:02.282Z,69.9
2022-09-10T02:15:06.707Z,69.6
2022-09-10T02:25:01.383Z,68.9
2022-09-10T02:30:02.306Z,69.2
2022-09-10T02:35:01.640Z,70.4
2022-09-10T02:40:06.819Z,70.8
2022-09-10T02:45:01.761Z,70.2
2022-09-10T02:50:01.536Z,70.2
2022-09-10T03:10:01.334Z,72.6
2022-09-10T03:15:01.497Z,73.0
2022-09-10T03:20:01.544Z,73.9
2022-09-10T03:25:01.483Z,75.3
2022-09-10T03:30:01.211Z,76.4
2022-09-10T03:35:01.262Z,78.7
2022-09-10T03:45:01.633Z,80.4
2022-09-10T03:50:01.212Z,81.0
2022-09-10T03:55:01.688Z,80.7
2022-09-10T04:00:01.142Z,80.8
2022-09-10T04:05:01.594Z,82.3
2022-09-10T04:10:01.724Z,81.8
2022-09-10T04:15:03.355Z,81.0
2022-09-10T04:20:07.219Z,82.2
2022-09-10T04:25:01.506Z,81.8
2022-09-10T04:30:01.576Z,81.2
2022-09-10T04:35:06.261Z,82.7
2022-09-10T04:40:05.447Z,83.3
2022-09-10T04:45:06.304Z,83.6
2022-09-10T04:50:01.522Z,82.6
2022-09-10T05:10:01.417Z,75.4
2022-09-10T05:30:01.730Z,83.2
2022-09-10T05:35:04.079Z,82.9
2022-09-10T05:40:07.030Z,81.5
2022-09-10T05:45:01.805Z,81.3
2022-09-10T05:50:01.803Z,80.2
2022-09-10T05:55:01.772Z,79.0
2022-09-10T06:00:02.051Z,77.2
2022-09-10T06:05:01.866Z,75.4
2022-09-10T06:10:02.802Z,73.0
2022-09-10T06:15:01.768Z,72.6
2022-09-10T06:20:01.781Z,70.0
2022-09-10T06:25:01.883Z,69.2
2022-09-10T06:30:06.630Z,66.0
2022-09-10T06:35:01.684Z,63.1
2022-09-10T06:40:01.683Z,58.8
2022-09-10T06:45:01.939Z,56.9
2022-09-10T06:50:01.611Z,53.9
2022-09-10T06:55:01.647Z,56.7
2022-09-10T07:00:01.514Z,57.1
2022-09-10T07:05:01.574Z,57.8
2022-09-10T07:10:01.644Z,58.2
2022-09-10T07:15:01.581Z,58.2
2022-09-10T07:20:01.951Z,55.9
2022-09-10T07:25:01.586Z,55.7
2022-09-10T07:30:01.569Z,55.2
2022-09-10T07:35:01.634Z,53.2
2022-09-10T07:40:01.703Z,59.7
2022-09-10T07:50:01.559Z,55.5
2022-09-10T07:55:02.022Z,53.9
2022-09-10T08:00:06.563Z,53.8
2022-09-10T08:05:01.660Z,45.0
2022-09-10T08:10:06.273Z,44.9
2022-09-10T08:15:01.541Z,45.6
2022-09-10T08:20:01.800Z,45.4
2022-09-10T08:25:02.161Z,43.9
2022-09-10T08:35:01.667Z,45.1
2022-09-10T08:40:01.806Z,42.9
2022-09-10T09:00:01.611Z,37.0
2022-09-10T09:05:01.605Z,37.7
2022-09-10T09:20:02.860Z,38.0
2022-09-10T09:25:01.933Z,37.5
2022-09-10T09:40:01.709Z,37.0
2022-09-10T09:45:01.597Z,36.8
2022-09-10T10:00:01.655Z,37.6
2022-09-10T10:20:02.011Z,66.8
2022-09-10T10:25:02.273Z,53.3
2022-09-10T10:30:01.903Z,47.2
2022-09-10T10:35:01.852Z,44.1
2022-09-10T10:40:02.098Z,42.8
2022-09-10T11:00:01.501Z,36.0
2022-09-10T11:05:07.963Z,36.4
2022-09-10T11:10:01.322Z,35.9
2022-09-10T11:15:06.983Z,35.9
2022-09-10T11:25:07.644Z,36.8
2022-09-10T11:40:01.502Z,37.0
2022-09-10T11:45:02.138Z,38.5
2022-09-10T12:00:03.576Z,41.6
2022-09-10T12:05:02.863Z,42.1
2022-09-10T12:20:01.675Z,40.0
2022-09-10T12:25:01.652Z,42.5
2022-09-10T12:30:02.422Z,43.0
2022-09-10T12:50:01.199Z,42.4
2022-09-10T12:55:01.266Z,41.1
2022-09-10T13:10:01.586Z,42.6
2022-09-10T13:20:01.776Z,41.9
2022-09-10T13:40:02.342Z,37.0
2022-09-10T14:00:01.350Z,37.2
2022-09-10T14:05:06.180Z,38.4
2022-09-10T14:20:02.620Z,34.2
2022-09-10T14:25:01.612Z,36.4
2022-09-10T14:40:02.053Z,34.2
2022-09-10T14:45:01.952Z,36.0
2022-09-10T15:00:01.373Z,35.8
2022-09-10T15:05:06.448Z,34.9
2022-09-10T15:10:07.221Z,34.3
2022-09-10T15:15:01.276Z,35.4
2022-09-10T15:20:06.330Z,34.8
2022-09-10T15:25:20.548Z,34.9
2022-09-10T15:30:01.199Z,35.0
2022-09-10T15:35:01.269Z,36.4
2022-09-10T15:40:01.853Z,39.2
2022-09-10T15:50:01.197Z,39.4
2022-09-10T15:55:01.426Z,40.0
2022-09-10T16:00:01.329Z,39.3
2022-09-10T16:05:01.279Z,35.9
2022-09-10T16:10:02.274Z,36.0
2022-09-10T16:15:01.178Z,36.3
2022-09-10T16:20:01.243Z,36.6
2022-09-10T16:25:01.271Z,37.3
2022-09-10T16:35:01.338Z,38.5
2022-09-10T16:40:01.776Z,38.8
2022-09-10T16:45:01.594Z,39.2
2022-09-10T16:50:01.140Z,38.8
2022-09-10T17:10:01.596Z,42.0
2022-09-10T17:15:01.499Z,39.6
2022-09-10T17:20:01.372Z,40.0
2022-09-10T17:25:01.452Z,41.2
2022-09-10T17:30:01.580Z,41.1
2022-09-10T17:35:01.450Z,41.7
2022-09-10T17:40:01.585Z,43.7
2022-09-10T17:45:01.540Z,45.6
2022-09-10T17:55:01.568Z,48.6
2022-09-10T18:05:01.596Z,47.8
2022-09-10T18:10:01.886Z,45.6
2022-09-10T18:15:01.631Z,43.5
2022-09-10T18:20:01.421Z,44.6
2022-09-10T18:25:01.469Z,44.1
2022-09-10T18:30:01.334Z,44.9
2022-09-10T18:35:06.437Z,46.3
2022-09-10T18:40:01.318Z,46.8
2022-09-10T18:45:01.276Z,45.0
2022-09-10T18:50:01.300Z,43.9
2022-09-10T19:00:01.499Z,43.9
2022-09-10T19:05:13.635Z,49.1
2022-09-10T19:10:01.448Z,49.0
2022-09-10T19:15:06.424Z,48.7
2022-09-10T19:20:01.451Z,49.7
2022-09-10T19:25:01.463Z,50.2
2022-09-10T19:30:01.323Z,45.0
2022-09-10T19:35:01.305Z,44.7
2022-09-10T19:40:01.341Z,45.0
2022-09-10T19:45:01.402Z,45.0
2022-09-10T19:50:02.527Z,44.1
2022-09-10T19:55:01.701Z,43.6
2022-09-10T20:00:01.418Z,44.4
2022-09-10T20:05:01.518Z,44.8
2022-09-10T20:15:01.353Z,45.3
2022-09-10T20:20:01.240Z,46.7
2022-09-10T20:25:01.500Z,47.4
2022-09-10T20:30:01.255Z,47.9
2022-09-10T20:50:01.363Z,49.1
2022-09-10T20:55:01.301Z,49.6
2022-09-10T21:00:01.283Z,51.0
2022-09-10T21:20:01.603Z,46.4
2022-09-10T21:25:01.564Z,47.6
2022-09-10T21:30:01.442Z,48.3
2022-09-10T21:35:11.622Z,48.1
2022-09-10T21:40:01.616Z,46.5
2022-09-10T21:45:01.565Z,54.7
2022-09-10T21:50:01.425Z,54.4
2022-09-10T21:55:01.623Z,54.1
2022-09-10T22:00:02.488Z,54.2
2022-09-10T22:05:01.548Z,56.6
2022-09-10T22:10:02.540Z,49.8
2022-09-10T22:15:02.258Z,51.3
2022-09-10T22:20:01.433Z,53.2
2022-09-10T22:25:06.639Z,55.2
2022-09-10T22:30:01.474Z,54.3
2022-09-10T22:35:01.612Z,53.6
2022-09-10T22:40:01.577Z,52.9
2022-09-10T22:45:01.830Z,52.2
2022-09-10T22:50:01.556Z,51.0
2022-09-10T22:55:01.988Z,52.4
2022-09-10T23:00:01.587Z,53.8
2022-09-10T23:05:01.594Z,55.0
2022-09-10T23:10:01.631Z,56.3
2022-09-10T23:15:06.621Z,57.7
2022-09-10T23:20:02.561Z,58.2
2022-09-10T23:25:06.584Z,58.6
2022-09-10T23:35:01.542Z,58.7
2022-09-10T23:40:02.501Z,58.9
2022-09-10T23:50:01.402Z,57.5
2022-09-10T23:55:01.496Z,57.0
